sensor_id;sensor_type;location;lat;lon;timestamp;P1;durP1;ratioP1;P2;durP2;ratioP2
55633;SDS011;41504;53.162;6.788;2024-01-06T00:02:01;14.23;;;9.13;;
55633;SDS011;41504;53.162;6.788;2024-01-06T00:04:27;12.45;;;8.70;;
55633;SDS011;41504;53.162;6.788;2024-01-06T00:06:55;13.45;;;8.85;;
55633;SDS011;41504;53.162;6.788;2024-01-06T00:09:21;13.48;;;9.40;;
55633;SDS011;41504;53.162;6.788;2024-01-06T00:11:47;13.32;;;9.10;;
55633;SDS011;41504;53.162;6.788;2024-01-06T00:14:12;13.77;;;9.30;;
55633;SDS011;41504;53.162;6.788;2024-01-06T00:16:38;12.75;;;8.57;;
55633;SDS011;41504;53.162;6.788;2024-01-06T00:19:04;13.00;;;8.73;;
55633;SDS011;41504;53.162;6.788;2024-01-06T00:21:29;13.52;;;9.32;;
55633;SDS011;41504;53.162;6.788;2024-01-06T00:23:55;14.68;;;9.02;;
55633;SDS011;41504;53.162;6.788;2024-01-06T00:26:21;11.32;;;8.52;;
55633;SDS011;41504;53.162;6.788;2024-01-06T00:28:54;13.60;;;9.07;;
55633;SDS011;41504;53.162;6.788;2024-01-06T00:31:20;15.98;;;9.73;;
55633;SDS011;41504;53.162;6.788;2024-01-06T00:33:55;15.10;;;10.20;;
55633;SDS011;41504;53.162;6.788;2024-01-06T00:36:21;15.32;;;10.70;;
55633;SDS011;41504;53.162;6.788;2024-01-06T00:38:46;15.88;;;10.98;;
55633;SDS011;41504;53.162;6.788;2024-01-06T00:41:15;16.95;;;10.98;;
55633;SDS011;41504;53.162;6.788;2024-01-06T00:43:47;15.13;;;10.73;;
55633;SDS011;41504;53.162;6.788;2024-01-06T00:46:15;16.98;;;10.50;;
55633;SDS011;41504;53.162;6.788;2024-01-06T00:48:41;16.90;;;11.15;;
55633;SDS011;41504;53.162;6.788;2024-01-06T00:51:07;17.50;;;10.80;;
55633;SDS011;41504;53.162;6.788;2024-01-06T00:53:33;17.70;;;11.43;;
55633;SDS011;41504;53.162;6.788;2024-01-06T00:55:58;16.60;;;10.80;;
55633;SDS011;41504;53.162;6.788;2024-01-06T00:58:27;16.23;;;10.98;;
55633;SDS011;41504;53.162;6.788;2024-01-06T01:00:53;17.33;;;10.45;;
55633;SDS011;41504;53.162;6.788;2024-01-06T01:03:19;18.20;;;11.30;;
55633;SDS011;41504;53.162;6.788;2024-01-06T01:05:45;15.10;;;10.02;;
55633;SDS011;41504;53.162;6.788;2024-01-06T01:08:10;16.50;;;10.32;;
55633;SDS011;41504;53.162;6.788;2024-01-06T01:10:36;15.13;;;10.15;;
55633;SDS011;41504;53.162;6.788;2024-01-06T01:13:03;17.83;;;10.68;;
55633;SDS011;41504;53.162;6.788;2024-01-06T01:15:28;17.45;;;10.35;;
55633;SDS011;41504;53.162;6.788;2024-01-06T01:17:57;17.77;;;10.35;;
55633;SDS011;41504;53.162;6.788;2024-01-06T01:20:22;18.15;;;10.95;;
55633;SDS011;41504;53.162;6.788;2024-01-06T01:22:48;17.52;;;11.27;;
55633;SDS011;41504;53.162;6.788;2024-01-06T01:25:14;17.98;;;10.90;;
55633;SDS011;41504;53.162;6.788;2024-01-06T01:27:40;16.35;;;10.30;;
55633;SDS011;41504;53.162;6.788;2024-01-06T01:30:05;15.38;;;9.82;;
55633;SDS011;41504;53.162;6.788;2024-01-06T01:32:32;14.38;;;9.20;;
55633;SDS011;41504;53.162;6.788;2024-01-06T01:34:57;15.50;;;9.93;;
55633;SDS011;41504;53.162;6.788;2024-01-06T01:37:23;15.32;;;9.45;;
55633;SDS011;41504;53.162;6.788;2024-01-06T01:39:51;15.52;;;9.57;;
55633;SDS011;41504;53.162;6.788;2024-01-06T01:42:17;16.98;;;9.98;;
55633;SDS011;41504;53.162;6.788;2024-01-06T01:44:43;16.63;;;9.93;;
55633;SDS011;41504;53.162;6.788;2024-01-06T01:47:09;15.43;;;8.90;;
55633;SDS011;41504;53.162;6.788;2024-01-06T01:49:36;15.50;;;9.88;;
55633;SDS011;41504;53.162;6.788;2024-01-06T01:52:02;14.10;;;8.55;;
55633;SDS011;41504;53.162;6.788;2024-01-06T01:54:28;14.98;;;9.25;;
55633;SDS011;41504;53.162;6.788;2024-01-06T01:56:54;16.38;;;8.98;;
55633;SDS011;41504;53.162;6.788;2024-01-06T01:59:23;15.35;;;8.90;;
55633;SDS011;41504;53.162;6.788;2024-01-06T02:01:49;15.60;;;9.40;;
55633;SDS011;41504;53.162;6.788;2024-01-06T02:04:14;14.80;;;9.32;;
55633;SDS011;41504;53.162;6.788;2024-01-06T02:06:40;15.23;;;10.15;;
55633;SDS011;41504;53.162;6.788;2024-01-06T02:09:06;15.55;;;9.07;;
55633;SDS011;41504;53.162;6.788;2024-01-06T02:11:31;16.65;;;9.57;;
55633;SDS011;41504;53.162;6.788;2024-01-06T02:13:57;15.88;;;9.38;;
55633;SDS011;41504;53.162;6.788;2024-01-06T02:16:26;17.00;;;9.82;;
55633;SDS011;41504;53.162;6.788;2024-01-06T02:18:52;16.42;;;10.00;;
55633;SDS011;41504;53.162;6.788;2024-01-06T02:21:17;16.50;;;9.73;;
55633;SDS011;41504;53.162;6.788;2024-01-06T02:23:46;16.52;;;9.50;;
55633;SDS011;41504;53.162;6.788;2024-01-06T02:26:12;17.25;;;9.77;;
55633;SDS011;41504;53.162;6.788;2024-01-06T02:28:40;14.95;;;9.52;;
55633;SDS011;41504;53.162;6.788;2024-01-06T02:31:06;16.27;;;9.75;;
55633;SDS011;41504;53.162;6.788;2024-01-06T02:33:31;16.27;;;9.57;;
55633;SDS011;41504;53.162;6.788;2024-01-06T02:35:57;14.50;;;8.85;;
55633;SDS011;41504;53.162;6.788;2024-01-06T02:38:23;12.93;;;8.43;;
55633;SDS011;41504;53.162;6.788;2024-01-06T02:40:49;13.40;;;8.30;;
55633;SDS011;41504;53.162;6.788;2024-01-06T02:43:14;12.20;;;7.65;;
55633;SDS011;41504;53.162;6.788;2024-01-06T02:45:40;14.32;;;8.68;;
55633;SDS011;41504;53.162;6.788;2024-01-06T02:48:06;14.13;;;8.60;;
55633;SDS011;41504;53.162;6.788;2024-01-06T02:50:32;16.05;;;9.32;;
55633;SDS011;41504;53.162;6.788;2024-01-06T02:52:57;15.98;;;9.05;;
55633;SDS011;41504;53.162;6.788;2024-01-06T02:55:23;15.48;;;9.43;;
55633;SDS011;41504;53.162;6.788;2024-01-06T02:57:52;15.13;;;9.23;;
55633;SDS011;41504;53.162;6.788;2024-01-06T03:00:18;12.57;;;7.80;;
55633;SDS011;41504;53.162;6.788;2024-01-06T03:02:43;13.25;;;7.57;;
55633;SDS011;41504;53.162;6.788;2024-01-06T03:05:09;14.43;;;8.43;;
55633;SDS011;41504;53.162;6.788;2024-01-06T03:07:38;13.18;;;7.80;;
55633;SDS011;41504;53.162;6.788;2024-01-06T03:10:03;13.23;;;8.02;;
55633;SDS011;41504;53.162;6.788;2024-01-06T03:12:29;13.13;;;7.38;;
55633;SDS011;41504;53.162;6.788;2024-01-06T03:14:55;11.82;;;7.47;;
55633;SDS011;41504;53.162;6.788;2024-01-06T03:17:21;13.52;;;7.93;;
55633;SDS011;41504;53.162;6.788;2024-01-06T03:19:47;12.07;;;7.72;;
55633;SDS011;41504;53.162;6.788;2024-01-06T03:22:12;12.32;;;7.15;;
55633;SDS011;41504;53.162;6.788;2024-01-06T03:24:39;11.25;;;7.45;;
55633;SDS011;41504;53.162;6.788;2024-01-06T03:27:05;12.70;;;8.15;;
55633;SDS011;41504;53.162;6.788;2024-01-06T03:29:31;12.63;;;7.78;;
55633;SDS011;41504;53.162;6.788;2024-01-06T03:31:56;13.13;;;7.47;;
55633;SDS011;41504;53.162;6.788;2024-01-06T03:34:22;13.68;;;8.10;;
55633;SDS011;41504;53.162;6.788;2024-01-06T03:36:48;12.52;;;7.85;;
55633;SDS011;41504;53.162;6.788;2024-01-06T03:39:14;11.43;;;7.18;;
55633;SDS011;41504;53.162;6.788;2024-01-06T03:41:39;15.10;;;7.32;;
55633;SDS011;41504;53.162;6.788;2024-01-06T03:44:05;12.75;;;7.68;;
55633;SDS011;41504;53.162;6.788;2024-01-06T03:46:34;13.18;;;7.78;;
55633;SDS011;41504;53.162;6.788;2024-01-06T03:49:00;11.57;;;7.60;;
55633;SDS011;41504;53.162;6.788;2024-01-06T03:51:26;11.90;;;7.53;;
55633;SDS011;41504;53.162;6.788;2024-01-06T03:53:52;10.85;;;7.15;;
55633;SDS011;41504;53.162;6.788;2024-01-06T03:56:18;11.25;;;6.53;;
55633;SDS011;41504;53.162;6.788;2024-01-06T03:58:43;11.43;;;6.72;;
55633;SDS011;41504;53.162;6.788;2024-01-06T04:01:09;11.32;;;7.40;;
55633;SDS011;41504;53.162;6.788;2024-01-06T04:03:35;11.82;;;6.95;;
55633;SDS011;41504;53.162;6.788;2024-01-06T04:06:01;11.15;;;7.18;;
55633;SDS011;41504;53.162;6.788;2024-01-06T04:08:27;11.93;;;6.50;;
55633;SDS011;41504;53.162;6.788;2024-01-06T04:10:52;10.75;;;6.45;;
55633;SDS011;41504;53.162;6.788;2024-01-06T04:13:18;10.65;;;6.63;;
55633;SDS011;41504;53.162;6.788;2024-01-06T04:15:44;10.73;;;6.68;;
55633;SDS011;41504;53.162;6.788;2024-01-06T04:18:09;11.23;;;7.35;;
55633;SDS011;41504;53.162;6.788;2024-01-06T04:20:35;10.45;;;6.55;;
55633;SDS011;41504;53.162;6.788;2024-01-06T04:23:02;10.75;;;6.28;;
55633;SDS011;41504;53.162;6.788;2024-01-06T04:25:27;11.45;;;7.00;;
55633;SDS011;41504;53.162;6.788;2024-01-06T04:27:53;10.50;;;5.80;;
55633;SDS011;41504;53.162;6.788;2024-01-06T04:30:19;11.02;;;6.55;;
55633;SDS011;41504;53.162;6.788;2024-01-06T04:32:47;11.02;;;6.55;;
55633;SDS011;41504;53.162;6.788;2024-01-06T04:35:15;10.43;;;6.38;;
55633;SDS011;41504;53.162;6.788;2024-01-06T04:37:41;12.57;;;6.90;;
55633;SDS011;41504;53.162;6.788;2024-01-06T04:40:07;11.75;;;7.25;;
55633;SDS011;41504;53.162;6.788;2024-01-06T04:42:33;14.10;;;7.47;;
55633;SDS011;41504;53.162;6.788;2024-01-06T04:44:59;11.63;;;6.82;;
55633;SDS011;41504;53.162;6.788;2024-01-06T04:47:25;11.38;;;7.35;;
55633;SDS011;41504;53.162;6.788;2024-01-06T04:49:51;10.20;;;6.68;;
55633;SDS011;41504;53.162;6.788;2024-01-06T04:52:17;10.90;;;6.57;;
55633;SDS011;41504;53.162;6.788;2024-01-06T04:54:43;11.40;;;7.20;;
55633;SDS011;41504;53.162;6.788;2024-01-06T04:57:09;10.75;;;6.53;;
55633;SDS011;41504;53.162;6.788;2024-01-06T04:59:34;11.77;;;6.68;;
55633;SDS011;41504;53.162;6.788;2024-01-06T05:02:00;12.02;;;6.63;;
55633;SDS011;41504;53.162;6.788;2024-01-06T05:04:26;12.75;;;6.95;;
55633;SDS011;41504;53.162;6.788;2024-01-06T05:06:52;10.98;;;6.90;;
55633;SDS011;41504;53.162;6.788;2024-01-06T05:09:18;11.18;;;6.20;;
55633;SDS011;41504;53.162;6.788;2024-01-06T05:11:44;11.15;;;6.82;;
55633;SDS011;41504;53.162;6.788;2024-01-06T05:14:13;10.82;;;6.70;;
55633;SDS011;41504;53.162;6.788;2024-01-06T05:16:38;11.70;;;6.93;;
55633;SDS011;41504;53.162;6.788;2024-01-06T05:19:04;11.95;;;7.07;;
55633;SDS011;41504;53.162;6.788;2024-01-06T05:21:30;10.20;;;6.72;;
55633;SDS011;41504;53.162;6.788;2024-01-06T05:23:56;11.27;;;7.30;;
55633;SDS011;41504;53.162;6.788;2024-01-06T05:26:22;10.85;;;6.55;;
55633;SDS011;41504;53.162;6.788;2024-01-06T05:28:48;11.85;;;6.93;;
55633;SDS011;41504;53.162;6.788;2024-01-06T05:31:14;10.20;;;6.50;;
55633;SDS011;41504;53.162;6.788;2024-01-06T05:33:44;12.75;;;7.43;;
55633;SDS011;41504;53.162;6.788;2024-01-06T05:36:10;12.18;;;7.43;;
55633;SDS011;41504;53.162;6.788;2024-01-06T05:38:36;10.40;;;6.75;;
55633;SDS011;41504;53.162;6.788;2024-01-06T05:41:02;11.55;;;6.78;;
55633;SDS011;41504;53.162;6.788;2024-01-06T05:43:28;12.65;;;7.38;;
55633;SDS011;41504;53.162;6.788;2024-01-06T05:45:53;10.80;;;6.90;;
55633;SDS011;41504;53.162;6.788;2024-01-06T05:48:22;11.55;;;7.05;;
55633;SDS011;41504;53.162;6.788;2024-01-06T05:50:48;12.43;;;7.55;;
55633;SDS011;41504;53.162;6.788;2024-01-06T05:53:13;11.13;;;6.75;;
55633;SDS011;41504;53.162;6.788;2024-01-06T05:55:43;11.80;;;7.13;;
55633;SDS011;41504;53.162;6.788;2024-01-06T05:58:11;12.90;;;7.25;;
55633;SDS011;41504;53.162;6.788;2024-01-06T06:00:37;13.23;;;7.18;;
55633;SDS011;41504;53.162;6.788;2024-01-06T06:03:02;10.63;;;6.78;;
55633;SDS011;41504;53.162;6.788;2024-01-06T06:05:31;10.18;;;6.82;;
55633;SDS011;41504;53.162;6.788;2024-01-06T06:07:57;10.88;;;6.72;;
55633;SDS011;41504;53.162;6.788;2024-01-06T06:10:23;10.65;;;6.93;;
55633;SDS011;41504;53.162;6.788;2024-01-06T06:12:48;11.27;;;7.40;;
55633;SDS011;41504;53.162;6.788;2024-01-06T06:15:14;11.73;;;7.28;;
55633;SDS011;41504;53.162;6.788;2024-01-06T06:17:40;11.43;;;7.10;;
55633;SDS011;41504;53.162;6.788;2024-01-06T06:20:06;10.20;;;6.68;;
55633;SDS011;41504;53.162;6.788;2024-01-06T06:22:32;12.00;;;7.07;;
55633;SDS011;41504;53.162;6.788;2024-01-06T06:24:58;11.57;;;6.75;;
55633;SDS011;41504;53.162;6.788;2024-01-06T06:27:25;10.88;;;6.40;;
55633;SDS011;41504;53.162;6.788;2024-01-06T06:29:51;11.05;;;7.80;;
55633;SDS011;41504;53.162;6.788;2024-01-06T06:32:18;12.40;;;6.78;;
55633;SDS011;41504;53.162;6.788;2024-01-06T06:34:44;11.35;;;7.45;;
55633;SDS011;41504;53.162;6.788;2024-01-06T06:37:09;10.45;;;7.07;;
55633;SDS011;41504;53.162;6.788;2024-01-06T06:39:35;10.70;;;6.90;;
55633;SDS011;41504;53.162;6.788;2024-01-06T06:42:01;10.60;;;6.25;;
55633;SDS011;41504;53.162;6.788;2024-01-06T06:44:28;13.23;;;7.45;;
55633;SDS011;41504;53.162;6.788;2024-01-06T06:46:57;10.48;;;6.68;;
55633;SDS011;41504;53.162;6.788;2024-01-06T06:49:23;11.55;;;6.80;;
55633;SDS011;41504;53.162;6.788;2024-01-06T06:51:49;13.68;;;6.80;;
55633;SDS011;41504;53.162;6.788;2024-01-06T06:54:15;12.20;;;6.88;;
55633;SDS011;41504;53.162;6.788;2024-01-06T06:56:44;10.98;;;6.97;;
55633;SDS011;41504;53.162;6.788;2024-01-06T06:59:09;12.32;;;6.88;;
55633;SDS011;41504;53.162;6.788;2024-01-06T07:01:35;10.90;;;6.72;;
55633;SDS011;41504;53.162;6.788;2024-01-06T07:04:02;11.57;;;6.95;;
55633;SDS011;41504;53.162;6.788;2024-01-06T07:06:28;10.65;;;6.45;;
55633;SDS011;41504;53.162;6.788;2024-01-06T07:08:57;10.68;;;6.55;;
55633;SDS011;41504;53.162;6.788;2024-01-06T07:11:23;10.48;;;7.03;;
55633;SDS011;41504;53.162;6.788;2024-01-06T07:13:49;11.00;;;6.38;;
55633;SDS011;41504;53.162;6.788;2024-01-06T07:16:15;11.13;;;7.00;;
55633;SDS011;41504;53.162;6.788;2024-01-06T07:18:41;11.85;;;7.65;;
55633;SDS011;41504;53.162;6.788;2024-01-06T07:21:06;13.07;;;8.25;;
55633;SDS011;41504;53.162;6.788;2024-01-06T07:23:33;10.43;;;6.57;;
55633;SDS011;41504;53.162;6.788;2024-01-06T07:25:59;11.02;;;7.18;;
55633;SDS011;41504;53.162;6.788;2024-01-06T07:28:25;13.75;;;7.32;;
55633;SDS011;41504;53.162;6.788;2024-01-06T07:30:51;12.32;;;8.15;;
55633;SDS011;41504;53.162;6.788;2024-01-06T07:33:16;11.73;;;8.15;;
55633;SDS011;41504;53.162;6.788;2024-01-06T07:35:42;11.98;;;7.93;;
55633;SDS011;41504;53.162;6.788;2024-01-06T07:38:12;10.75;;;7.22;;
55633;SDS011;41504;53.162;6.788;2024-01-06T07:40:38;13.27;;;7.72;;
55633;SDS011;41504;53.162;6.788;2024-01-06T07:43:04;11.40;;;6.95;;
55633;SDS011;41504;53.162;6.788;2024-01-06T07:45:30;10.75;;;7.32;;
55633;SDS011;41504;53.162;6.788;2024-01-06T07:47:59;11.00;;;7.28;;
55633;SDS011;41504;53.162;6.788;2024-01-06T07:50:25;12.38;;;7.20;;
55633;SDS011;41504;53.162;6.788;2024-01-06T07:52:51;12.95;;;8.07;;
55633;SDS011;41504;53.162;6.788;2024-01-06T07:55:17;11.45;;;7.15;;
55633;SDS011;41504;53.162;6.788;2024-01-06T07:57:43;12.30;;;7.30;;
55633;SDS011;41504;53.162;6.788;2024-01-06T08:00:09;23.30;;;13.07;;
55633;SDS011;41504;53.162;6.788;2024-01-06T08:02:39;13.52;;;8.20;;
55633;SDS011;41504;53.162;6.788;2024-01-06T08:05:05;12.23;;;8.05;;
55633;SDS011;41504;53.162;6.788;2024-01-06T08:07:32;12.00;;;7.07;;
55633;SDS011;41504;53.162;6.788;2024-01-06T08:10:01;10.98;;;7.28;;
55633;SDS011;41504;53.162;6.788;2024-01-06T08:12:30;11.80;;;7.63;;
55633;SDS011;41504;53.162;6.788;2024-01-06T08:14:56;11.38;;;7.28;;
55633;SDS011;41504;53.162;6.788;2024-01-06T08:17:21;11.60;;;7.65;;
55633;SDS011;41504;53.162;6.788;2024-01-06T08:19:47;11.45;;;7.75;;
55633;SDS011;41504;53.162;6.788;2024-01-06T08:22:15;12.65;;;7.68;;
55633;SDS011;41504;53.162;6.788;2024-01-06T08:25:10;11.90;;;7.53;;
55633;SDS011;41504;53.162;6.788;2024-01-06T08:27:39;13.25;;;7.80;;
55633;SDS011;41504;53.162;6.788;2024-01-06T08:30:05;11.77;;;7.40;;
55633;SDS011;41504;53.162;6.788;2024-01-06T08:32:31;11.73;;;8.15;;
55633;SDS011;41504;53.162;6.788;2024-01-06T08:34:57;12.05;;;7.97;;
55633;SDS011;41504;53.162;6.788;2024-01-06T08:37:22;11.52;;;7.70;;
55633;SDS011;41504;53.162;6.788;2024-01-06T08:39:48;12.45;;;8.63;;
55633;SDS011;41504;53.162;6.788;2024-01-06T08:42:14;12.27;;;8.63;;
55633;SDS011;41504;53.162;6.788;2024-01-06T08:44:39;13.07;;;8.60;;
55633;SDS011;41504;53.162;6.788;2024-01-06T08:47:08;13.15;;;8.25;;
55633;SDS011;41504;53.162;6.788;2024-01-06T08:49:34;12.52;;;9.18;;
55633;SDS011;41504;53.162;6.788;2024-01-06T08:52:09;13.90;;;8.52;;
55633;SDS011;41504;53.162;6.788;2024-01-06T08:54:37;13.32;;;7.97;;
55633;SDS011;41504;53.162;6.788;2024-01-06T08:57:03;14.23;;;8.77;;
55633;SDS011;41504;53.162;6.788;2024-01-06T08:59:29;14.27;;;10.00;;
55633;SDS011;41504;53.162;6.788;2024-01-06T09:01:54;14.30;;;9.07;;
55633;SDS011;41504;53.162;6.788;2024-01-06T09:04:21;13.95;;;9.10;;
55633;SDS011;41504;53.162;6.788;2024-01-06T09:06:47;13.73;;;8.40;;
55633;SDS011;41504;53.162;6.788;2024-01-06T09:09:13;14.35;;;8.48;;
55633;SDS011;41504;53.162;6.788;2024-01-06T09:11:42;13.75;;;9.57;;
55633;SDS011;41504;53.162;6.788;2024-01-06T09:14:09;14.23;;;9.10;;
55633;SDS011;41504;53.162;6.788;2024-01-06T09:16:38;14.23;;;8.95;;
55633;SDS011;41504;53.162;6.788;2024-01-06T09:19:04;11.75;;;8.38;;
55633;SDS011;41504;53.162;6.788;2024-01-06T09:21:30;13.65;;;8.27;;
55633;SDS011;41504;53.162;6.788;2024-01-06T09:23:56;13.45;;;9.25;;
55633;SDS011;41504;53.162;6.788;2024-01-06T09:26:21;13.40;;;8.70;;
55633;SDS011;41504;53.162;6.788;2024-01-06T09:28:47;13.25;;;8.93;;
55633;SDS011;41504;53.162;6.788;2024-01-06T09:31:13;14.23;;;9.38;;
55633;SDS011;41504;53.162;6.788;2024-01-06T09:33:38;16.73;;;9.25;;
55633;SDS011;41504;53.162;6.788;2024-01-06T09:36:04;15.05;;;9.18;;
55633;SDS011;41504;53.162;6.788;2024-01-06T09:38:30;14.05;;;9.30;;
55633;SDS011;41504;53.162;6.788;2024-01-06T09:40:56;14.07;;;9.70;;
55633;SDS011;41504;53.162;6.788;2024-01-06T09:43:23;14.15;;;9.02;;
55633;SDS011;41504;53.162;6.788;2024-01-06T09:45:54;15.23;;;9.13;;
55633;SDS011;41504;53.162;6.788;2024-01-06T09:48:24;16.60;;;8.98;;
55633;SDS011;41504;53.162;6.788;2024-01-06T09:50:57;15.48;;;10.15;;
55633;SDS011;41504;53.162;6.788;2024-01-06T09:53:28;17.45;;;9.98;;
55633;SDS011;41504;53.162;6.788;2024-01-06T09:56:02;14.68;;;8.57;;
55633;SDS011;41504;53.162;6.788;2024-01-06T09:58:29;14.68;;;9.32;;
55633;SDS011;41504;53.162;6.788;2024-01-06T10:00:59;13.85;;;9.30;;
55633;SDS011;41504;53.162;6.788;2024-01-06T10:03:26;13.60;;;9.13;;
55633;SDS011;41504;53.162;6.788;2024-01-06T10:05:52;15.77;;;9.63;;
55633;SDS011;41504;53.162;6.788;2024-01-06T10:08:18;14.18;;;9.25;;
55633;SDS011;41504;53.162;6.788;2024-01-06T10:10:44;15.20;;;9.50;;
55633;SDS011;41504;53.162;6.788;2024-01-06T10:13:10;15.55;;;9.55;;
55633;SDS011;41504;53.162;6.788;2024-01-06T10:15:38;16.15;;;9.35;;
55633;SDS011;41504;53.162;6.788;2024-01-06T10:18:04;14.75;;;9.55;;
55633;SDS011;41504;53.162;6.788;2024-01-06T10:20:30;15.95;;;9.82;;
55633;SDS011;41504;53.162;6.788;2024-01-06T10:22:56;14.63;;;10.20;;
55633;SDS011;41504;53.162;6.788;2024-01-06T10:25:30;15.23;;;9.38;;
55633;SDS011;41504;53.162;6.788;2024-01-06T10:27:59;15.15;;;9.57;;
55633;SDS011;41504;53.162;6.788;2024-01-06T10:30:26;14.90;;;9.88;;
55633;SDS011;41504;53.162;6.788;2024-01-06T10:32:52;13.20;;;8.77;;
55633;SDS011;41504;53.162;6.788;2024-01-06T10:35:19;14.75;;;9.02;;
55633;SDS011;41504;53.162;6.788;2024-01-06T10:37:52;14.77;;;9.32;;
55633;SDS011;41504;53.162;6.788;2024-01-06T10:40:19;14.32;;;9.02;;
55633;SDS011;41504;53.162;6.788;2024-01-06T10:42:45;13.55;;;8.90;;
55633;SDS011;41504;53.162;6.788;2024-01-06T10:45:12;13.77;;;8.90;;
55633;SDS011;41504;53.162;6.788;2024-01-06T10:47:40;13.98;;;8.70;;
55633;SDS011;41504;53.162;6.788;2024-01-06T10:50:08;13.52;;;9.10;;
55633;SDS011;41504;53.162;6.788;2024-01-06T10:52:34;12.80;;;8.77;;
55633;SDS011;41504;53.162;6.788;2024-01-06T10:55:01;14.43;;;9.13;;
55633;SDS011;41504;53.162;6.788;2024-01-06T10:57:28;13.18;;;8.43;;
55633;SDS011;41504;53.162;6.788;2024-01-06T10:59:57;13.13;;;8.60;;
55633;SDS011;41504;53.162;6.788;2024-01-06T11:02:25;14.15;;;9.32;;
55633;SDS011;41504;53.162;6.788;2024-01-06T11:04:57;13.07;;;8.55;;
55633;SDS011;41504;53.162;6.788;2024-01-06T11:07:24;13.87;;;8.20;;
55633;SDS011;41504;53.162;6.788;2024-01-06T11:09:57;14.07;;;8.82;;
55633;SDS011;41504;53.162;6.788;2024-01-06T11:12:41;12.20;;;8.45;;
55633;SDS011;41504;53.162;6.788;2024-01-06T11:15:07;13.25;;;8.95;;
55633;SDS011;41504;53.162;6.788;2024-01-06T11:17:52;14.40;;;9.85;;
55633;SDS011;41504;53.162;6.788;2024-01-06T11:20:23;13.27;;;8.38;;
55633;SDS011;41504;53.162;6.788;2024-01-06T11:22:55;13.85;;;8.30;;
55633;SDS011;41504;53.162;6.788;2024-01-06T11:25:48;13.13;;;8.40;;
55633;SDS011;41504;53.162;6.788;2024-01-06T11:28:16;13.95;;;8.63;;
55633;SDS011;41504;53.162;6.788;2024-01-06T11:30:42;15.23;;;9.20;;
55633;SDS011;41504;53.162;6.788;2024-01-06T11:33:08;14.52;;;8.90;;
55633;SDS011;41504;53.162;6.788;2024-01-06T11:35:36;13.82;;;8.82;;
55633;SDS011;41504;53.162;6.788;2024-01-06T11:38:06;12.90;;;8.90;;
55633;SDS011;41504;53.162;6.788;2024-01-06T11:40:32;14.55;;;9.55;;
55633;SDS011;41504;53.162;6.788;2024-01-06T11:45:32;15.68;;;9.77;;
55633;SDS011;41504;53.162;6.788;2024-01-06T11:48:08;13.30;;;8.70;;
55633;SDS011;41504;53.162;6.788;2024-01-06T11:50:37;14.20;;;9.45;;
55633;SDS011;41504;53.162;6.788;2024-01-06T11:53:04;13.60;;;9.55;;
55633;SDS011;41504;53.162;6.788;2024-01-06T11:55:32;16.92;;;9.93;;
55633;SDS011;41504;53.162;6.788;2024-01-06T11:57:59;15.23;;;9.25;;
55633;SDS011;41504;53.162;6.788;2024-01-06T12:00:29;16.83;;;10.13;;
55633;SDS011;41504;53.162;6.788;2024-01-06T12:02:55;14.63;;;9.52;;
55633;SDS011;41504;53.162;6.788;2024-01-06T12:05:26;12.95;;;8.93;;
55633;SDS011;41504;53.162;6.788;2024-01-06T12:07:57;14.18;;;9.77;;
55633;SDS011;41504;53.162;6.788;2024-01-06T12:10:27;13.73;;;9.88;;
55633;SDS011;41504;53.162;6.788;2024-01-06T12:13:00;13.32;;;9.00;;
55633;SDS011;41504;53.162;6.788;2024-01-06T12:15:28;14.38;;;8.75;;
55633;SDS011;41504;53.162;6.788;2024-01-06T12:17:56;11.85;;;7.68;;
55633;SDS011;41504;53.162;6.788;2024-01-06T12:20:23;12.38;;;8.25;;
55633;SDS011;41504;53.162;6.788;2024-01-06T12:22:54;13.25;;;8.13;;
55633;SDS011;41504;53.162;6.788;2024-01-06T12:25:24;13.75;;;8.35;;
55633;SDS011;41504;53.162;6.788;2024-01-06T12:27:51;13.85;;;9.00;;
55633;SDS011;41504;53.162;6.788;2024-01-06T12:30:19;13.45;;;8.77;;
55633;SDS011;41504;53.162;6.788;2024-01-06T12:32:46;12.75;;;8.30;;
55633;SDS011;41504;53.162;6.788;2024-01-06T12:35:26;13.25;;;8.63;;
55633;SDS011;41504;53.162;6.788;2024-01-06T12:37:52;14.25;;;8.77;;
55633;SDS011;41504;53.162;6.788;2024-01-06T12:40:19;12.90;;;8.38;;
55633;SDS011;41504;53.162;6.788;2024-01-06T12:42:45;13.60;;;8.73;;
55633;SDS011;41504;53.162;6.788;2024-01-06T12:45:11;15.38;;;9.02;;
55633;SDS011;41504;53.162;6.788;2024-01-06T12:47:37;14.38;;;9.10;;
55633;SDS011;41504;53.162;6.788;2024-01-06T12:50:04;13.73;;;8.95;;
55633;SDS011;41504;53.162;6.788;2024-01-06T12:52:31;12.48;;;8.15;;
55633;SDS011;41504;53.162;6.788;2024-01-06T12:54:58;12.38;;;8.13;;
55633;SDS011;41504;53.162;6.788;2024-01-06T12:57:27;13.45;;;8.65;;
55633;SDS011;41504;53.162;6.788;2024-01-06T12:59:53;13.35;;;9.23;;
55633;SDS011;41504;53.162;6.788;2024-01-06T13:02:22;16.90;;;9.48;;
55633;SDS011;41504;53.162;6.788;2024-01-06T13:04:48;12.18;;;8.18;;
55633;SDS011;41504;53.162;6.788;2024-01-06T13:07:13;13.40;;;8.10;;
55633;SDS011;41504;53.162;6.788;2024-01-06T13:09:39;13.10;;;8.05;;
55633;SDS011;41504;53.162;6.788;2024-01-06T13:12:05;11.75;;;7.85;;
55633;SDS011;41504;53.162;6.788;2024-01-06T13:14:35;11.25;;;7.50;;
55633;SDS011;41504;53.162;6.788;2024-01-06T13:17:00;11.82;;;7.38;;
55633;SDS011;41504;53.162;6.788;2024-01-06T13:19:27;12.18;;;7.68;;
55633;SDS011;41504;53.162;6.788;2024-01-06T13:21:53;10.80;;;7.20;;
55633;SDS011;41504;53.162;6.788;2024-01-06T13:24:18;11.70;;;7.53;;
55633;SDS011;41504;53.162;6.788;2024-01-06T13:26:45;13.00;;;8.27;;
55633;SDS011;41504;53.162;6.788;2024-01-06T13:29:10;13.95;;;8.25;;
55633;SDS011;41504;53.162;6.788;2024-01-06T13:31:36;12.85;;;8.07;;
55633;SDS011;41504;53.162;6.788;2024-01-06T13:34:02;12.82;;;8.50;;
55633;SDS011;41504;53.162;6.788;2024-01-06T13:36:31;13.90;;;7.85;;
55633;SDS011;41504;53.162;6.788;2024-01-06T13:38:57;12.63;;;8.23;;
55633;SDS011;41504;53.162;6.788;2024-01-06T13:41:25;13.25;;;8.63;;
55633;SDS011;41504;53.162;6.788;2024-01-06T13:43:50;12.35;;;8.10;;
55633;SDS011;41504;53.162;6.788;2024-01-06T13:46:16;12.27;;;7.60;;
55633;SDS011;41504;53.162;6.788;2024-01-06T13:48:42;12.10;;;8.02;;
55633;SDS011;41504;53.162;6.788;2024-01-06T13:51:07;13.15;;;8.65;;
55633;SDS011;41504;53.162;6.788;2024-01-06T13:53:36;12.27;;;7.80;;
55633;SDS011;41504;53.162;6.788;2024-01-06T13:56:02;13.23;;;7.95;;
55633;SDS011;41504;53.162;6.788;2024-01-06T13:58:29;12.38;;;7.93;;
55633;SDS011;41504;53.162;6.788;2024-01-06T14:00:55;12.23;;;7.78;;
55633;SDS011;41504;53.162;6.788;2024-01-06T14:03:20;12.68;;;7.72;;
55633;SDS011;41504;53.162;6.788;2024-01-06T14:05:47;13.35;;;8.25;;
55633;SDS011;41504;53.162;6.788;2024-01-06T14:08:13;13.07;;;8.15;;
55633;SDS011;41504;53.162;6.788;2024-01-06T14:10:39;11.68;;;7.35;;
55633;SDS011;41504;53.162;6.788;2024-01-06T14:13:04;13.13;;;7.25;;
55633;SDS011;41504;53.162;6.788;2024-01-06T14:15:32;13.35;;;8.10;;
55633;SDS011;41504;53.162;6.788;2024-01-06T14:18:00;12.98;;;7.63;;
55633;SDS011;41504;53.162;6.788;2024-01-06T14:20:26;14.10;;;8.27;;
55633;SDS011;41504;53.162;6.788;2024-01-06T14:22:52;13.77;;;8.65;;
55633;SDS011;41504;53.162;6.788;2024-01-06T14:25:18;15.25;;;8.65;;
55633;SDS011;41504;53.162;6.788;2024-01-06T14:27:46;14.27;;;8.77;;
55633;SDS011;41504;53.162;6.788;2024-01-06T14:30:13;14.82;;;8.75;;
55633;SDS011;41504;53.162;6.788;2024-01-06T14:32:39;13.43;;;8.90;;
55633;SDS011;41504;53.162;6.788;2024-01-06T14:35:05;14.48;;;9.88;;